Time;durP1;ratioP1;P1;durP2;ratioP2;P2;SDS_P1;SDS_P2;PMS_P1;PMS_P2;Temp;Humidity;BMP_temperature;BMP_pressure;BME280_temperature;BME280_humidity;BME280_pressure;Samples;Min_cycle;Max_cycle;Signal;HPM_P1;HPM_P2
2021/07/25 00:02:21;;;;;;;16.30;12.93;;;20.80;99.90;;;;;;5079301;28;20492;-85
2021/07/25 00:04:48;;;;;;;15.20;13.27;;;20.80;99.90;;;;;;5075538;28;20548;-85
2021/07/25 00:07:15;;;;;;;18.93;13.63;;;20.70;99.90;;;;;;5083182;28;20466;-86
2021/07/25 00:09:42;;;;;;;21.97;14.53;;;20.70;99.90;;;;;;5075919;28;20450;-85
2021/07/25 00:12:10;;;;;;;20.23;12.90;;;20.60;99.90;;;;;;5078878;28;20451;-86
2021/07/25 00:14:37;;;;;;;20.13;12.90;;;20.60;99.90;;;;;;5082195;28;20450;-86
2021/07/25 00:17:05;;;;;;;20.20;13.40;;;20.60;99.90;;;;;;5076684;28;20451;-86
2021/07/25 00:19:35;;;;;;;18.30;13.67;;;20.50;99.90;;;;;;5078049;28;20944;-86
2021/07/25 00:22:02;;;;;;;20.30;13.90;;;20.50;99.90;;;;;;5080244;28;20910;-85
2021/07/25 00:24:32;;;;;;;20.43;13.30;;;20.50;99.90;;;;;;5080333;28;20455;-85
2021/07/25 00:27:00;;;;;;;19.73;14.57;;;20.50;99.90;;;;;;5082810;28;20450;-85
2021/07/25 00:29:29;;;;;;;17.60;13.37;;;20.40;99.90;;;;;;5076361;28;20543;-86
2021/07/25 00:31:58;;;;;;;22.33;13.63;;;20.40;99.90;;;;;;5071169;28;20470;-85
2021/07/25 00:34:25;;;;;;;16.77;13.07;;;20.40;99.90;;;;;;5077759;28;20548;-86
2021/07/25 00:36:54;;;;;;;25.10;13.83;;;20.40;99.90;;;;;;5078953;28;20894;-83
2021/07/25 00:39:21;;;;;;;23.70;14.17;;;20.40;99.90;;;;;;5082538;28;20487;-85
2021/07/25 00:41:48;;;;;;;17.20;12.57;;;20.40;99.90;;;;;;5076116;28;20972;-83
2021/07/25 00:44:16;;;;;;;21.80;13.30;;;20.40;99.90;;;;;;5077996;28;20536;-83
2021/07/25 00:46:45;;;;;;;17.20;12.63;;;20.40;99.90;;;;;;5071085;28;20455;-86
2021/07/25 00:49:12;;;;;;;15.57;12.63;;;20.30;99.90;;;;;;5081275;28;20472;-82
2021/07/25 00:51:40;;;;;;;19.20;12.20;;;20.30;99.90;;;;;;5078822;28;20461;-83
2021/07/25 00:54:08;;;;;;;27.20;13.03;;;20.30;99.90;;;;;;5073420;28;20446;-84
2021/07/25 00:56:35;;;;;;;16.47;12.27;;;20.20;99.90;;;;;;5081702;28;20559;-84
2021/07/25 00:59:02;;;;;;;28.27;12.77;;;20.20;99.90;;;;;;5081703;28;20454;-84
2021/07/25 01:01:30;;;;;;;19.77;11.77;;;20.20;99.90;;;;;;5075486;28;20491;-84
2021/07/25 01:04:09;;;;;;;15.60;12.60;;;20.20;99.90;;;;;;5071973;28;20999;-83
2021/07/25 01:06:46;;;;;;;18.87;12.23;;;20.10;99.90;;;;;;5078291;28;20545;-83
2021/07/25 01:09:21;;;;;;;17.67;12.13;;;20.10;99.90;;;;;;5072511;28;21069;-84
2021/07/25 01:11:52;;;;;;;24.13;12.60;;;20.00;99.90;;;;;;5079022;28;20458;-83
2021/07/25 01:14:27;;;;;;;16.17;11.63;;;20.00;99.90;;;;;;5086022;28;20942;-84
2021/07/25 01:16:54;;;;;;;17.00;11.13;;;20.00;99.90;;;;;;5079686;28;20467;-85
2021/07/25 01:19:20;;;;;;;16.50;11.30;;;20.00;99.90;;;;;;5076095;28;20819;-84
2021/07/25 01:21:49;;;;;;;15.67;11.57;;;19.90;99.90;;;;;;5075721;28;20458;-82
2021/07/25 01:24:16;;;;;;;14.90;11.00;;;19.90;99.90;;;;;;5073310;28;20994;-85
2021/07/25 01:26:44;;;;;;;22.97;13.00;;;19.90;99.90;;;;;;5082247;28;20928;-83
2021/07/25 01:29:12;;;;;;;16.00;12.07;;;19.80;99.90;;;;;;5084940;28;20472;-85
2021/07/25 01:31:42;;;;;;;13.20;11.80;;;19.80;99.90;;;;;;5074767;28;20981;-84
2021/07/25 01:34:12;;;;;;;13.40;12.00;;;19.80;99.90;;;;;;5077456;28;20534;-83
2021/07/25 01:36:41;;;;;;;19.97;11.13;;;19.80;99.90;;;;;;5076205;28;21058;-85
2021/07/25 01:39:09;;;;;;;16.93;10.17;;;19.70;99.90;;;;;;5077680;28;20518;-83
2021/07/25 01:41:43;;;;;;;19.00;12.20;;;19.70;99.90;;;;;;5075543;28;20471;-86
2021/07/25 01:44:11;;;;;;;14.80;10.20;;;19.60;99.90;;;;;;5073829;28;20504;-85
2021/07/25 01:46:39;;;;;;;18.30;9.70;;;19.60;99.90;;;;;;5075656;28;20490;-82
2021/07/25 01:49:06;;;;;;;12.73;10.10;;;19.60;99.90;;;;;;5078611;28;20652;-86
2021/07/25 01:51:33;;;;;;;13.37;9.30;;;19.50;99.90;;;;;;5075976;28;20455;-84
2021/07/25 01:53:59;;;;;;;12.97;10.00;;;19.50;99.90;;;;;;5074726;28;20764;-82
2021/07/25 01:56:28;;;;;;;11.50;8.77;;;19.50;99.90;;;;;;5075730;28;20485;-83
2021/07/25 01:58:56;;;;;;;11.10;8.50;;;19.50;99.90;;;;;;5073297;28;20976;-84
2021/07/25 02:01:23;;;;;;;11.00;9.33;;;19.50;99.90;;;;;;5076500;28;20457;-82
2021/07/25 02:03:50;;;;;;;10.70;8.90;;;19.40;99.90;;;;;;5072771;28;20648;-85
2021/07/25 02:06:17;;;;;;;9.30;8.40;;;19.40;99.90;;;;;;5076350;28;20453;-83
2021/07/25 02:08:44;;;;;;;9.13;8.20;;;19.40;99.90;;;;;;5075621;28;20458;-83
2021/07/25 02:11:11;;;;;;;9.23;8.27;;;19.40;99.90;;;;;;5080519;28;20961;-83
2021/07/25 02:13:39;;;;;;;11.30;8.10;;;19.30;99.90;;;;;;5085949;28;20545;-82
2021/07/25 02:16:07;;;;;;;12.30;9.20;;;19.30;99.90;;;;;;5077432;28;20480;-83
2021/07/25 02:18:34;;;;;;;10.30;8.90;;;19.30;99.90;;;;;;5080364;28;21047;-83
2021/07/25 02:21:01;;;;;;;12.70;8.37;;;19.30;99.90;;;;;;5076370;28;20546;-85
2021/07/25 02:23:28;;;;;;;10.07;9.00;;;19.30;99.90;;;;;;5080286;28;20482;-83
2021/07/25 02:25:55;;;;;;;13.07;9.03;;;19.30;99.90;;;;;;5074278;28;20447;-83
2021/07/25 02:28:21;;;;;;;10.63;8.30;;;19.30;99.90;;;;;;5081380;28;20574;-84
2021/07/25 02:30:50;;;;;;;9.37;8.47;;;19.30;99.90;;;;;;5080337;28;20546;-84
2021/07/25 02:33:16;;;;;;;11.83;8.33;;;19.30;99.90;;;;;;5085828;28;20473;-82
2021/07/25 02:35:43;;;;;;;10.77;7.33;;;19.40;99.90;;;;;;5083345;28;20541;-84
2021/07/25 02:38:10;;;;;;;9.30;8.17;;;19.40;99.90;;;;;;5081945;28;21264;-85
2021/07/25 02:40:37;;;;;;;11.43;9.00;;;19.40;99.90;;;;;;5073327;28;20556;-84
2021/07/25 02:43:04;;;;;;;10.93;8.13;;;19.40;99.90;;;;;;5078425;28;20806;-84
2021/07/25 02:45:31;;;;;;;10.03;8.70;;;19.40;99.90;;;;;;5081862;28;20462;-84
2021/07/25 02:47:59;;;;;;;12.63;10.10;;;19.40;99.90;;;;;;5083462;28;20458;-83
2021/07/25 02:50:28;;;;;;;13.70;9.87;;;19.40;99.90;;;;;;5078904;28;20549;-83
2021/07/25 02:52:55;;;;;;;17.33;11.03;;;19.40;99.90;;;;;;5085538;28;20548;-84
2021/07/25 02:55:22;;;;;;;16.87;11.30;;;19.40;99.90;;;;;;5085695;28;20502;-85
2021/07/25 02:57:49;;;;;;;13.10;10.47;;;19.50;99.90;;;;;;5078598;28;20544;-82
2021/07/25 03:00:17;;;;;;;19.37;11.40;;;19.50;99.90;;;;;;5079464;28;20458;-85
2021/07/25 03:02:44;;;;;;;21.40;12.30;;;19.50;99.90;;;;;;5079347;28;20655;-83
2021/07/25 03:05:13;;;;;;;19.43;11.50;;;19.50;99.90;;;;;;5077446;28;20961;-82
2021/07/25 03:07:41;;;;;;;14.20;11.13;;;19.50;99.90;;;;;;5082844;28;20457;-83
2021/07/25 03:10:08;;;;;;;13.60;10.93;;;19.50;99.90;;;;;;5080149;28;20461;-83
2021/07/25 03:12:35;;;;;;;17.30;11.90;;;19.50;99.90;;;;;;5077970;28;20947;-83
2021/07/25 03:15:03;;;;;;;18.80;14.00;;;19.60;99.90;;;;;;5078617;28;20456;-83
2021/07/25 03:17:29;;;;;;;16.17;12.37;;;19.60;99.90;;;;;;5072454;28;20462;-83
2021/07/25 03:19:56;;;;;;;16.53;12.53;;;19.60;99.90;;;;;;5078864;28;20515;-82
2021/07/25 03:22:25;;;;;;;20.67;12.80;;;19.60;99.90;;;;;;5079564;28;20466;-84
2021/07/25 03:24:52;;;;;;;19.77;12.33;;;19.60;99.90;;;;;;5078296;28;20470;-83
2021/07/25 03:27:19;;;;;;;19.60;13.20;;;19.60;99.90;;;;;;5075309;28;20649;-82
2021/07/25 03:29:46;;;;;;;20.47;13.10;;;19.60;99.90;;;;;;5078546;28;20447;-84
2021/07/25 03:32:18;;;;;;;16.47;12.97;;;19.70;99.90;;;;;;5081784;28;20482;-84
2021/07/25 03:34:45;;;;;;;16.30;12.70;;;19.70;99.90;;;;;;5080593;28;20458;-82
2021/07/25 03:37:12;;;;;;;15.33;11.40;;;19.70;99.90;;;;;;5083620;28;20985;-84
2021/07/25 03:39:43;;;;;;;17.23;11.70;;;19.70;99.90;;;;;;5079984;28;20473;-82
2021/07/25 03:42:11;;;;;;;13.37;10.17;;;19.70;99.90;;;;;;5075204;28;20457;-83
2021/07/25 03:44:38;;;;;;;19.10;11.07;;;19.70;99.90;;;;;;5079176;28;20526;-84
2021/07/25 03:47:05;;;;;;;14.07;10.80;;;19.70;99.90;;;;;;5076827;28;21000;-84
2021/07/25 03:49:32;;;;;;;11.37;9.53;;;19.70;99.90;;;;;;5074797;28;20460;-82
2021/07/25 03:51:59;;;;;;;10.20;8.93;;;19.70;99.90;;;;;;5071485;28;20454;-82
2021/07/25 03:54:27;;;;;;;27.57;9.13;;;19.60;99.90;;;;;;5073574;28;20817;-83
2021/07/25 03:56:55;;;;;;;10.40;8.80;;;19.50;99.90;;;;;;5082296;28;20474;-82
2021/07/25 03:59:22;;;;;;;10.60;9.50;;;19.40;99.90;;;;;;5074178;28;20461;-83
2021/07/25 04:01:49;;;;;;;9.60;8.27;;;19.40;99.90;;;;;;5078937;28;20465;-84
2021/07/25 04:04:16;;;;;;;12.77;9.50;;;19.40;99.90;;;;;;5083127;28;20502;-85
2021/07/25 04:06:43;;;;;;;12.27;10.33;;;19.30;99.90;;;;;;5076525;28;20446;-85
2021/07/25 04:09:10;;;;;;;11.80;9.60;;;19.30;99.90;;;;;;5075373;28;20611;-82
2021/07/25 04:11:37;;;;;;;11.03;9.13;;;19.20;99.90;;;;;;5078533;28;20568;-83
2021/07/25 04:14:05;;;;;;;11.57;9.27;;;19.10;99.90;;;;;;5074626;28;20497;-84
2021/07/25 04:16:32;;;;;;;11.40;8.10;;;19.10;99.90;;;;;;5086454;28;20456;-84
2021/07/25 04:18:59;;;;;;;12.80;9.37;;;19.10;99.90;;;;;;5076705;28;20818;-82
2021/07/25 04:21:26;;;;;;;11.40;8.63;;;19.10;99.90;;;;;;5081022;28;20470;-82
2021/07/25 04:23:53;;;;;;;10.00;8.97;;;19.00;99.90;;;;;;5074913;28;20576;-83
2021/07/25 04:26:20;;;;;;;9.00;8.10;;;19.00;99.90;;;;;;5085350;28;20577;-82
2021/07/25 04:28:48;;;;;;;13.80;7.70;;;19.00;99.90;;;;;;5082758;28;20466;-82
2021/07/25 04:31:16;;;;;;;8.80;7.33;;;19.00;99.90;;;;;;5076488;28;20803;-82
2021/07/25 04:33:44;;;;;;;13.10;7.73;;;19.00;99.90;;;;;;5078633;28;20975;-82
2021/07/25 04:36:14;;;;;;;10.83;8.37;;;18.90;99.90;;;;;;5079913;28;20848;-84
2021/07/25 04:38:41;;;;;;;9.67;7.73;;;18.90;99.90;;;;;;5080578;28;20522;-83
2021/07/25 04:41:10;;;;;;;9.60;7.63;;;18.90;99.90;;;;;;5075670;28;20878;-83
2021/07/25 04:43:39;;;;;;;13.20;7.90;;;19.00;99.90;;;;;;5076856;28;20479;-83
2021/07/25 04:46:12;;;;;;;14.50;8.60;;;19.00;99.90;;;;;;5080304;28;20464;-83
2021/07/25 04:48:46;;;;;;;7.47;6.70;;;19.00;99.90;;;;;;5079903;28;20627;-82
2021/07/25 04:51:15;;;;;;;8.80;7.70;;;19.00;99.90;;;;;;5078306;28;20552;-84
2021/07/25 04:53:43;;;;;;;10.93;7.30;;;19.10;99.90;;;;;;5088429;28;20450;-83
2021/07/25 04:56:13;;;;;;;12.97;6.43;;;19.10;99.90;;;;;;5080397;28;20478;-81
2021/07/25 04:58:47;;;;;;;12.13;7.60;;;19.10;99.90;;;;;;5082959;28;20457;-82
2021/07/25 05:01:18;;;;;;;9.40;7.20;;;19.20;99.90;;;;;;5082128;28;20458;-83
2021/07/25 05:03:48;;;;;;;13.87;6.20;;;19.20;99.90;;;;;;5085769;28;20481;-82
2021/07/25 05:06:15;;;;;;;12.83;6.70;;;19.20;99.90;;;;;;5073771;28;20459;-83
2021/07/25 05:08:44;;;;;;;13.40;7.50;;;19.30;99.90;;;;;;5076622;28;20852;-83
2021/07/25 05:11:17;;;;;;;11.57;6.27;;;19.30;99.90;;;;;;5082832;28;20457;-82
2021/07/25 05:13:46;;;;;;;9.47;5.70;;;19.30;99.90;;;;;;5077823;28;20463;-82
2021/07/25 05:16:26;;;;;;;9.03;5.67;;;19.30;99.90;;;;;;5081400;28;20451;-84
2021/07/25 05:19:05;;;;;;;7.30;5.83;;;19.30;99.90;;;;;;5086541;28;20476;-82
2021/07/25 05:21:38;;;;;;;7.40;6.40;;;19.30;99.90;;;;;;5085881;28;20458;-82
2021/07/25 05:24:08;;;;;;;7.53;6.00;;;19.40;99.90;;;;;;5077964;28;20997;-84
2021/07/25 05:26:37;;;;;;;13.80;7.70;;;19.40;99.90;;;;;;5079078;28;20541;-82
2021/07/25 05:29:04;;;;;;;12.23;7.57;;;19.40;99.90;;;;;;5074357;28;20461;-83
2021/07/25 05:31:33;;;;;;;10.10;6.50;;;19.40;99.90;;;;;;5081234;28;20457;-85
2021/07/25 05:34:04;;;;;;;8.33;6.50;;;19.50;99.90;;;;;;5078579;28;20828;-83
2021/07/25 05:36:31;;;;;;;9.47;6.50;;;19.50;99.90;;;;;;5086783;28;20462;-85
2021/07/25 05:38:59;;;;;;;11.03;6.80;;;19.50;99.90;;;;;;5085399;28;20485;-85
2021/07/25 05:41:26;;;;;;;7.83;6.53;;;19.50;99.90;;;;;;5081129;28;20458;-84
2021/07/25 05:43:53;;;;;;;8.47;5.73;;;19.60;99.90;;;;;;5078034;28;20509;-82
2021/07/25 05:46:20;;;;;;;11.80;5.90;;;19.60;99.90;;;;;;5084122;28;20543;-82
2021/07/25 05:48:47;;;;;;;9.80;5.63;;;19.60;99.90;;;;;;5086924;28;20534;-83
2021/07/25 05:51:15;;;;;;;9.60;5.43;;;19.70;99.90;;;;;;5085632;28;20852;-85
2021/07/25 05:53:42;;;;;;;10.37;7.17;;;19.70;99.90;;;;;;5079498;28;20542;-83
2021/07/25 05:56:10;;;;;;;12.90;6.97;;;19.80;99.90;;;;;;5081038;28;20490;-85
2021/07/25 05:58:37;;;;;;;8.67;6.47;;;19.80;99.90;;;;;;5080352;28;20470;-83
2021/07/25 06:01:04;;;;;;;11.50;7.20;;;19.80;99.90;;;;;;5076402;28;20470;-85
2021/07/25 06:03:31;;;;;;;7.73;6.73;;;19.90;99.90;;;;;;5081508;28;20486;-82
2021/07/25 06:05:57;;;;;;;13.33;7.87;;;19.90;99.90;;;;;;5078302;28;20579;-84
2021/07/25 06:08:26;;;;;;;14.03;6.70;;;20.00;99.90;;;;;;5074812;28;20450;-83
2021/07/25 06:10:52;;;;;;;12.40;7.50;;;20.00;99.90;;;;;;5080319;28;20953;-84
2021/07/25 06:13:19;;;;;;;8.13;6.00;;;20.10;99.90;;;;;;5081346;28;20465;-83
2021/07/25 06:15:48;;;;;;;10.57;6.10;;;20.10;99.90;;;;;;5077705;28;20671;-83
2021/07/25 06:18:15;;;;;;;9.70;5.70;;;20.20;99.90;;;;;;5079671;28;20771;-86
2021/07/25 06:20:42;;;;;;;10.10;6.17;;;20.20;99.90;;;;;;5078043;28;20459;-83
2021/07/25 06:23:09;;;;;;;13.10;7.57;;;20.20;99.90;;;;;;5079862;28;20460;-84
2021/07/25 06:25:38;;;;;;;13.13;6.53;;;20.30;99.90;;;;;;5080987;28;21132;-85
2021/07/25 06:28:06;;;;;;;15.67;6.60;;;20.30;99.90;;;;;;5076614;28;20485;-84
2021/07/25 06:30:34;;;;;;;15.63;8.30;;;20.40;99.90;;;;;;5086440;28;20486;-84
2021/07/25 06:33:02;;;;;;;8.27;5.67;;;20.50;99.90;;;;;;5085232;28;20449;-84
2021/07/25 06:35:30;;;;;;;9.40;5.80;;;20.50;99.90;;;;;;5078320;28;20455;-83
2021/07/25 06:37:58;;;;;;;9.97;5.30;;;20.50;99.90;;;;;;5077449;28;20486;-87
2021/07/25 06:40:26;;;;;;;10.37;6.30;;;20.60;99.90;;;;;;5079630;28;20458;-86
2021/07/25 06:42:55;;;;;;;5.83;5.07;;;20.60;99.90;;;;;;5079178;28;20465;-85
2021/07/25 06:45:23;;;;;;;6.87;5.00;;;20.70;99.90;;;;;;5076366;28;20580;-85
2021/07/25 06:47:51;;;;;;;6.80;5.90;;;20.70;99.90;;;;;;5082265;28;20471;-85
2021/07/25 06:50:18;;;;;;;7.73;5.10;;;20.80;99.90;;;;;;5074107;28;20458;-84
2021/07/25 06:52:45;;;;;;;7.43;5.30;;;20.80;99.90;;;;;;5076082;28;20453;-84
2021/07/25 06:55:12;;;;;;;10.80;5.30;;;20.90;99.90;;;;;;5079561;28;20592;-85
2021/07/25 06:57:41;;;;;;;10.60;4.87;;;20.90;99.90;;;;;;5078411;28;20981;-85
2021/07/25 07:00:11;;;;;;;10.13;4.50;;;21.00;99.90;;;;;;5081162;28;20454;-85
2021/07/25 07:02:49;;;;;;;6.33;4.60;;;21.00;99.90;;;;;;5077460;28;20460;-85
2021/07/25 07:05:16;;;;;;;8.20;4.23;;;21.10;99.90;;;;;;5076521;28;20493;-85
2021/07/25 07:07:44;;;;;;;5.00;4.40;;;21.10;99.90;;;;;;5073687;28;20454;-85
2021/07/25 07:10:12;;;;;;;5.60;3.70;;;21.20;99.90;;;;;;5079938;28;21379;-86
2021/07/25 07:12:39;;;;;;;3.93;3.57;;;21.20;99.90;;;;;;5080600;28;20464;-85
2021/07/25 07:15:08;;;;;;;5.63;4.40;;;21.30;99.90;;;;;;5077151;28;20449;-84
2021/07/25 07:17:38;;;;;;;6.10;4.00;;;21.30;99.90;;;;;;5078081;28;20493;-86
2021/07/25 07:20:06;;;;;;;4.30;3.67;;;21.30;99.90;;;;;;5082094;28;20518;-84
2021/07/25 07:22:33;;;;;;;5.47;4.10;;;21.40;99.90;;;;;;5075585;28;20552;-85
2021/07/25 07:25:00;;;;;;;8.13;4.37;;;21.50;99.90;;;;;;5076776;28;20518;-85
2021/07/25 07:27:28;;;;;;;5.47;4.10;;;21.50;99.90;;;;;;5070533;28;20463;-84
2021/07/25 07:29:56;;;;;;;4.37;3.57;;;21.50;99.90;;;;;;5084097;28;20457;-85
2021/07/25 07:32:22;;;;;;;6.50;4.07;;;21.60;99.90;;;;;;5075649;28;20871;-85
2021/07/25 07:34:51;;;;;;;5.00;3.67;;;21.60;99.90;;;;;;5077488;28;20450;-85
2021/07/25 07:37:18;;;;;;;4.60;3.40;;;21.70;99.90;;;;;;5080018;28;20485;-86
2021/07/25 07:39:45;;;;;;;4.33;3.57;;;21.70;99.90;;;;;;5070621;28;20565;-85
2021/07/25 07:42:13;;;;;;;5.37;3.80;;;21.80;99.90;;;;;;5079322;28;20991;-86
2021/07/25 07:44:40;;;;;;;8.97;3.87;;;21.90;99.90;;;;;;5079153;28;20482;-84
2021/07/25 07:47:07;;;;;;;6.87;4.73;;;21.90;99.90;;;;;;5079995;28;21065;-86
2021/07/25 08:00:22;;;;;;;5.37;3.40;;;22.20;99.90;;;;;;4807137;29;20480;-90
2021/07/25 08:02:49;;;;;;;7.07;3.50;;;22.30;99.90;;;;;;4893032;28;20907;-86
2021/07/25 08:05:18;;;;;;;4.03;3.57;;;22.30;99.90;;;;;;4976538;28;20764;-84
2021/07/25 08:07:45;;;;;;;5.07;3.37;;;22.40;99.90;;;;;;5041672;28;20466;-84
2021/07/25 08:10:13;;;;;;;7.10;3.33;;;22.40;99.90;;;;;;5082597;28;20459;-85
2021/07/25 08:12:40;;;;;;;3.83;3.27;;;22.50;99.90;;;;;;5079179;28;20918;-86
2021/07/25 08:15:09;;;;;;;3.60;3.07;;;22.60;99.90;;;;;;5077684;28;20942;-85
2021/07/25 08:17:37;;;;;;;5.97;4.23;;;22.70;99.90;;;;;;5080318;28;20458;-84
2021/07/25 08:20:06;;;;;;;4.10;3.40;;;22.70;99.90;;;;;;5076471;28;20979;-84
2021/07/25 08:22:33;;;;;;;5.83;3.20;;;22.90;99.90;;;;;;5079143;28;20796;-84
2021/07/25 08:25:00;;;;;;;5.40;3.63;;;22.90;99.90;;;;;;5077938;28;20858;-85
2021/07/25 08:27:26;;;;;;;4.33;3.20;;;23.10;99.90;;;;;;5076124;28;20454;-83
2021/07/25 08:29:53;;;;;;;3.97;3.60;;;23.10;99.90;;;;;;5074177;28;20490;-86
2021/07/25 08:32:20;;;;;;;4.80;3.30;;;23.20;99.90;;;;;;5081947;28;20952;-87
2021/07/25 08:34:49;;;;;;;3.43;2.93;;;23.30;99.90;;;;;;5077747;28;20458;-84
2021/07/25 08:37:16;;;;;;;3.40;3.07;;;23.40;99.90;;;;;;5077243;28;20836;-84
2021/07/25 08:39:43;;;;;;;3.10;2.63;;;23.50;99.90;;;;;;5079607;28;20916;-83
2021/07/25 08:42:12;;;;;;;3.27;2.83;;;23.60;99.90;;;;;;5081395;28;20456;-83
2021/07/25 08:44:45;;;;;;;3.00;2.70;;;23.70;99.90;;;;;;5077116;28;20477;-86
2021/07/25 08:47:32;;;;;;;3.40;3.10;;;23.80;99.90;;;;;;5081900;28;20450;-85
2021/07/25 08:50:02;;;;;;;5.60;2.63;;;23.90;99.90;;;;;;5080197;28;20461;-85
2021/07/25 08:52:31;;;;;;;5.10;3.13;;;23.90;99.90;;;;;;5076957;28;20472;-84
2021/07/25 08:55:00;;;;;;;6.00;3.40;;;24.00;99.90;;;;;;5078996;28;21055;-84
2021/07/25 08:57:29;;;;;;;4.13;3.30;;;24.00;99.90;;;;;;5078714;28;20464;-84
2021/07/25 08:59:57;;;;;;;4.47;3.07;;;24.10;99.90;;;;;;5071691;28;20455;-84
2021/07/25 09:02:26;;;;;;;2.90;2.53;;;24.10;99.90;;;;;;5081310;28;20446;-87
2021/07/25 09:04:54;;;;;;;4.53;3.20;;;24.20;99.90;;;;;;5075949;28;20473;-87
2021/07/25 09:07:24;;;;;;;3.20;2.73;;;24.30;99.90;;;;;;5078685;28;20465;-85
2021/07/25 09:09:53;;;;;;;5.20;3.13;;;24.30;99.90;;;;;;5072629;28;20533;-86
2021/07/25 09:12:22;;;;;;;3.33;3.03;;;24.40;99.90;;;;;;5080744;28;20674;-86
2021/07/25 09:14:51;;;;;;;10.93;2.93;;;24.40;99.90;;;;;;5079195;28;20446;-85
2021/07/25 09:17:19;;;;;;;3.70;3.27;;;24.50;99.90;;;;;;5080442;28;20533;-84
2021/07/25 09:20:15;;;;;;;7.27;2.87;;;24.50;99.90;;;;;;5077639;28;20471;-85
2021/07/25 09:22:58;;;;;;;3.77;2.90;;;24.60;99.90;;;;;;5077742;28;20976;-84
2021/07/25 09:25:39;;;;;;;4.30;2.67;;;24.60;99.90;;;;;;5071307;28;20492;-84
2021/07/25 09:28:21;;;;;;;4.97;3.30;;;24.60;99.90;;;;;;5075956;28;21022;-84
2021/07/25 09:30:48;;;;;;;4.20;2.60;;;24.60;99.90;;;;;;5088882;28;20459;-85
2021/07/25 09:33:30;;;;;;;3.40;2.70;;;24.80;99.90;;;;;;5072793;28;20859;-84
2021/07/25 09:36:11;;;;;;;4.90;2.70;;;24.90;99.90;;;;;;5079770;28;20482;-83
2021/07/25 09:38:41;;;;;;;4.70;3.13;;;24.90;99.90;;;;;;5085781;28;21000;-84
2021/07/25 09:41:19;;;;;;;2.80;2.60;;;25.00;99.90;;;;;;5085821;28;20946;-84
2021/07/25 09:44:01;;;;;;;3.23;2.53;;;25.10;99.90;;;;;;5081422;28;21011;-84
2021/07/25 09:46:41;;;;;;;4.10;2.50;;;25.20;99.90;;;;;;5077240;28;20542;-85
2021/07/25 09:49:08;;;;;;;4.00;3.23;;;25.20;99.90;;;;;;5076464;28;20530;-84
2021/07/25 09:51:35;;;;;;;4.30;2.90;;;25.20;99.90;;;;;;5080749;28;20942;-85
2021/07/25 09:54:05;;;;;;;4.50;3.30;;;25.20;99.90;;;;;;5081226;28;20948;-84
2021/07/25 09:56:32;;;;;;;4.33;2.87;;;25.10;99.90;;;;;;5087544;28;21124;-83
2021/07/25 09:59:00;;;;;;;2.87;2.57;;;25.00;99.90;;;;;;5077774;28;20482;-84
2021/07/25 10:01:38;;;;;;;3.60;3.13;;;24.90;99.90;;;;;;5080302;28;20464;-85
2021/07/25 10:04:17;;;;;;;3.40;2.83;;;24.90;99.90;;;;;;5080322;28;20511;-84
2021/07/25 10:06:45;;;;;;;7.60;3.10;;;24.90;99.90;;;;;;5079522;28;20462;-84
2021/07/25 10:09:15;;;;;;;5.70;3.07;;;24.90;99.90;;;;;;5078150;28;20537;-83
2021/07/25 10:11:47;;;;;;;11.47;2.80;;;24.80;99.90;;;;;;5081567;28;21051;-85
2021/07/25 10:14:15;;;;;;;5.43;3.10;;;24.80;99.90;;;;;;5076772;28;20463;-84
2021/07/25 10:16:44;;;;;;;3.60;3.30;;;24.80;99.90;;;;;;5079419;28;20967;-85
2021/07/25 10:19:12;;;;;;;4.80;2.40;;;24.70;99.90;;;;;;5084395;28;20462;-86
2021/07/25 10:21:39;;;;;;;4.73;3.07;;;24.70;99.90;;;;;;5082950;28;21175;-86
2021/07/25 10:24:13;;;;;;;3.33;2.90;;;24.70;99.90;;;;;;5078431;28;20884;-83
2021/07/25 10:26:43;;;;;;;3.80;2.80;;;24.60;99.90;;;;;;5076052;28;20498;-85
2021/07/25 10:29:12;;;;;;;3.30;3.00;;;24.60;99.90;;;;;;5084639;28;20468;-84
2021/07/25 10:31:42;;;;;;;4.33;3.43;;;24.60;99.90;;;;;;5079409;28;20463;-83
2021/07/25 10:34:11;;;;;;;3.60;3.30;;;24.60;99.90;;;;;;5081138;28;20461;-83
2021/07/25 10:36:40;;;;;;;3.73;2.80;;;24.60;99.90;;;;;;5077220;28;20457;-84
2021/07/25 10:39:08;;;;;;;3.40;3.10;;;24.60;99.90;;;;;;5070056;28;20486;-86
2021/07/25 10:41:35;;;;;;;13.43;3.87;;;24.70;99.90;;;;;;5083858;28;20851;-85
2021/07/25 10:44:04;;;;;;;5.77;3.50;;;24.90;99.90;;;;;;5083274;28;20545;-83
2021/07/25 10:46:33;;;;;;;5.00;2.93;;;25.00;99.90;;;;;;5074604;28;20493;-85
2021/07/25 10:49:17;;;;;;;3.70;3.10;;;25.20;99.90;;;;;;5078703;28;20478;-83
2021/07/25 10:52:01;;;;;;;4.07;3.00;;;25.30;99.90;;;;;;5083591;28;20552;-84
2021/07/25 10:54:50;;;;;;;5.00;3.07;;;25.40;99.90;;;;;;5082459;28;20453;-84
2021/07/25 10:57:17;;;;;;;5.60;4.80;;;25.50;99.90;;;;;;5071812;28;20546;-84
2021/07/25 10:59:47;;;;;;;6.83;2.90;;;25.40;99.90;;;;;;5079629;28;20450;-84
2021/07/25 11:02:35;;;;;;;4.87;3.97;;;25.30;99.90;;;;;;5074727;28;20465;-85
2021/07/25 11:05:07;;;;;;;4.20;2.63;;;25.30;99.90;;;;;;5077270;28;20493;-84
2021/07/25 11:07:36;;;;;;;4.27;3.07;;;25.20;99.90;;;;;;5086475;28;20454;-84
2021/07/25 11:10:06;;;;;;;4.47;2.70;;;25.20;99.90;;;;;;5082142;28;20465;-84
2021/07/25 11:13:17;;;;;;;3.70;2.20;;;25.10;99.90;;;;;;5074823;28;20450;-84
2021/07/25 11:15:46;;;;;;;2.40;2.20;;;25.10;99.90;;;;;;5072319;28;20969;-84
2021/07/25 11:18:27;;;;;;;4.60;2.30;;;25.00;99.90;;;;;;5082024;28;20553;-86
2021/07/25 11:21:01;;;;;;;3.33;2.40;;;25.00;99.90;;;;;;5080317;28;20455;-87
2021/07/25 11:23:36;;;;;;;3.43;2.50;;;25.10;99.90;;;;;;5082583;28;20465;-85
2021/07/25 11:26:35;;;;;;;3.43;2.27;;;25.20;99.90;;;;;;5081160;28;20481;-84
2021/07/25 11:29:05;;;;;;;2.73;2.53;;;25.40;99.90;;;;;;5064605;28;20525;-84
2021/07/25 11:31:41;;;;;;;2.50;2.30;;;25.60;99.90;;;;;;5078215;28;20452;-84
2021/07/25 11:34:11;;;;;;;3.07;2.37;;;25.70;99.90;;;;;;5080921;28;20446;-84
2021/07/25 11:36:38;;;;;;;2.73;2.37;;;25.80;99.90;;;;;;5078444;28;20465;-83
2021/07/25 11:39:07;;;;;;;2.87;1.90;;;25.80;99.90;;;;;;5080803;28;20924;-86
2021/07/25 11:41:35;;;;;;;2.10;1.90;;;25.90;99.90;;;;;;5079037;28;20823;-86
2021/07/25 11:44:04;;;;;;;2.13;2.00;;;26.00;99.90;;;;;;5081122;28;20461;-84
2021/07/25 11:46:36;;;;;;;3.03;2.10;;;26.10;99.90;;;;;;5080371;28;21020;-86
2021/07/25 11:49:13;;;;;;;2.40;2.20;;;26.10;99.90;;;;;;5082853;28;20457;-84
2021/07/25 11:51:44;;;;;;;3.20;2.10;;;26.10;99.90;;;;;;5079470;28;20977;-85
2021/07/25 11:54:12;;;;;;;2.53;2.20;;;26.00;99.90;;;;;;5083049;28;20542;-84
2021/07/25 11:56:55;;;;;;;2.60;2.13;;;26.00;99.90;;;;;;5075110;28;20478;-84
2021/07/25 11:59:22;;;;;;;2.50;2.13;;;25.90;99.90;;;;;;5074502;28;20462;-85
2021/07/25 12:01:50;;;;;;;2.97;2.23;;;25.90;99.90;;;;;;5086355;28;20453;-84
2021/07/25 12:04:24;;;;;;;2.90;2.10;;;25.80;99.90;;;;;;5081300;28;20453;-84
2021/07/25 12:07:01;;;;;;;4.13;2.20;;;25.80;99.90;;;;;;5076888;28;20490;-84
2021/07/25 12:09:28;;;;;;;2.50;2.10;;;25.70;99.90;;;;;;5074971;28;20889;-86
2021/07/25 12:12:17;;;;;;;4.43;2.87;;;25.60;99.90;;;;;;5082112;28;20456;-83
2021/07/25 12:14:47;;;;;;;2.37;2.17;;;25.60;99.90;;;;;;5078201;28;20524;-84
2021/07/25 12:17:14;;;;;;;4.10;2.60;;;25.50;99.90;;;;;;5080378;28;20450;-81
2021/07/25 12:19:44;;;;;;;2.60;2.40;;;25.50;99.90;;;;;;5078951;28;20454;-82
2021/07/25 12:22:16;;;;;;;3.57;2.70;;;25.30;99.90;;;;;;5079005;28;20542;-83
2021/07/25 12:24:45;;;;;;;4.13;2.27;;;25.30;99.90;;;;;;5081790;28;20462;-83
2021/07/25 12:27:30;;;;;;;4.67;2.70;;;25.20;99.90;;;;;;5081302;28;20495;-83
2021/07/25 12:30:17;;;;;;;2.70;2.20;;;25.20;99.90;;;;;;5076655;28;20462;-85
2021/07/25 12:32:45;;;;;;;5.43;2.23;;;25.30;99.90;;;;;;5086005;28;20960;-85
2021/07/25 12:35:20;;;;;;;3.87;2.90;;;25.40;99.90;;;;;;5082034;28;20457;-84
2021/07/25 12:37:48;;;;;;;4.30;2.30;;;25.50;99.90;;;;;;5077660;28;20461;-86
2021/07/25 12:40:16;;;;;;;4.40;2.40;;;25.70;99.90;;;;;;5080324;28;20480;-86
2021/07/25 12:42:48;;;;;;;5.37;2.77;;;25.80;99.90;;;;;;5081746;28;20455;-85
2021/07/25 12:45:29;;;;;;;2.20;2.00;;;25.90;99.90;;;;;;5075085;28;20946;-84
2021/07/25 12:48:26;;;;;;;3.10;2.00;;;26.10;99.90;;;;;;5078483;28;20495;-85
2021/07/25 12:51:30;;;;;;;3.80;3.20;;;26.20;99.90;;;;;;5080425;28;20453;-86
2021/07/25 12:54:00;;;;;;;3.40;2.10;;;26.30;99.90;;;;;;5079546;28;20786;-85
2021/07/25 12:56:30;;;;;;;2.03;1.93;;;26.40;99.90;;;;;;5079050;28;20470;-86
2021/07/25 12:58:59;;;;;;;2.50;2.30;;;26.50;99.90;;;;;;5077398;28;21028;-84
2021/07/25 13:04:25;;;;;;;3.27;2.13;;;26.70;99.90;;;;;;5076797;28;20450;-85
2021/07/25 13:06:54;;;;;;;2.53;2.33;;;26.80;99.90;;;;;;5076354;28;20509;-84
2021/07/25 13:09:23;;;;;;;3.73;2.30;;;26.80;99.90;;;;;;5073406;28;20473;-85